createdAt,value
2022-12-03T00:01:50.461Z,98947.47
2022-12-03T00:04:17.407Z,98938.25
2022-12-03T00:06:47.189Z,98942.66
2022-12-03T00:09:17.236Z,98946.09
2022-12-03T00:11:44.313Z,98953.78
2022-12-03T00:14:13.403Z,98956.06
2022-12-03T00:16:40.506Z,98942.75
2022-12-03T00:19:10.092Z,98944.78
2022-12-03T00:21:37.136Z,98947.66
2022-12-03T00:24:04.234Z,98943.50
2022-12-03T00:26:31.117Z,98942.75
2022-12-03T00:28:57.959Z,98950.50
2022-12-03T00:31:25.377Z,98957.81
2022-12-03T00:33:52.435Z,98963.94
2022-12-03T00:36:20.190Z,98950.50
2022-12-03T00:38:47.169Z,98961.03
2022-12-03T00:41:13.951Z,98961.03
2022-12-03T00:43:41.046Z,98963.72
2022-12-03T00:46:08.155Z,98955.81
2022-12-03T00:48:35.374Z,98956.09
2022-12-03T00:51:02.135Z,98954.38
2022-12-03T00:53:29.630Z,98956.84
2022-12-03T00:55:56.440Z,98966.47
2022-12-03T00:58:23.739Z,98955.72
2022-12-03T01:00:50.799Z,98960.69
2022-12-03T01:03:18.727Z,98962.91
2022-12-03T01:05:45.507Z,98962.41
2022-12-03T01:08:13.222Z,98962.03
2022-12-03T01:10:40.092Z,98967.22
2022-12-03T01:13:07.444Z,98965.47
2022-12-03T01:15:34.697Z,98968.16
2022-12-03T01:18:01.895Z,98976.69
2022-12-03T01:20:28.880Z,98969.31
2022-12-03T01:22:56.204Z,98976.59
2022-12-03T01:25:23.507Z,98978.81
2022-12-03T01:27:50.773Z,98981.66
2022-12-03T01:30:18.036Z,98971.31
2022-12-03T01:32:45.101Z,98976.03
2022-12-03T01:35:11.775Z,98979.84
2022-12-03T01:37:39.259Z,98968.72
2022-12-03T01:40:08.349Z,98975.84
2022-12-03T01:42:38.990Z,98975.63
2022-12-03T01:45:08.051Z,98973.53
2022-12-03T01:47:36.842Z,98968.66
2022-12-03T01:50:06.773Z,98975.81
2022-12-03T01:52:38.863Z,98971.03
2022-12-03T01:55:13.002Z,98970.75
2022-12-03T01:57:45.532Z,98958.59
2022-12-03T02:00:19.502Z,98965.66
2022-12-03T02:02:56.189Z,98959.72
2022-12-03T02:05:26.447Z,98963.94
2022-12-03T02:07:54.090Z,98962.63
2022-12-03T02:10:28.394Z,98962.69
2022-12-03T02:13:00.263Z,98958.56
2022-12-03T02:15:27.737Z,98963.06
2022-12-03T02:17:55.755Z,98966.63
2022-12-03T02:20:23.070Z,98971.00
2022-12-03T02:23:08.854Z,98966.03
2022-12-03T02:25:37.812Z,98971.50
2022-12-03T02:28:08.141Z,98967.31
2022-12-03T02:30:36.260Z,98957.31
2022-12-03T02:33:03.713Z,98959.50
2022-12-03T02:35:33.584Z,98956.06
2022-12-03T02:38:08.562Z,98959.53
2022-12-03T02:40:35.780Z,98951.13
2022-12-03T02:43:04.352Z,98947.94
2022-12-03T02:45:36.193Z,98939.59
2022-12-03T02:48:06.490Z,98941.81
2022-12-03T02:50:38.050Z,98941.75
2022-12-03T02:53:09.479Z,98943.25
2022-12-03T02:55:37.979Z,98942.97
2022-12-03T02:58:05.527Z,98944.19
2022-12-03T03:00:33.660Z,98943.25
2022-12-03T03:03:03.092Z,98947.19
2022-12-03T03:05:30.780Z,98952.44
2022-12-03T03:07:59.369Z,98943.06
2022-12-03T03:10:29.796Z,98941.69
2022-12-03T03:12:57.031Z,98947.66
2022-12-03T03:15:25.007Z,98944.66
2022-12-03T03:17:52.408Z,98938.81
2022-12-03T03:20:19.893Z,98940.84
2022-12-03T03:22:46.802Z,98934.63
2022-12-03T03:25:18.602Z,98929.44
2022-12-03T03:27:46.008Z,98926.78
2022-12-03T03:30:13.964Z,98929.84
2022-12-03T03:32:42.833Z,98938.47
2022-12-03T03:35:11.592Z,98929.16
2022-12-03T03:37:39.335Z,98931.25
2022-12-03T03:40:07.614Z,98933.00
2022-12-03T03:42:35.618Z,98936.81
2022-12-03T03:45:02.529Z,98937.97
2022-12-03T03:47:29.894Z,98943.06
2022-12-03T03:49:56.872Z,98948.03
2022-12-03T03:52:26.270Z,98955.81
2022-12-03T03:54:53.380Z,98948.63
2022-12-03T03:57:20.846Z,98958.28
2022-12-03T03:59:47.773Z,98950.44
2022-12-03T04:02:21.073Z,98953.56
2022-12-03T04:04:49.162Z,98959.03
2022-12-03T04:07:16.536Z,98953.28
2022-12-03T04:09:45.006Z,98962.81
2022-12-03T04:12:31.576Z,98954.13
2022-12-03T04:15:00.545Z,98955.50
2022-12-03T04:17:27.521Z,98965.84
2022-12-03T04:19:54.583Z,98960.78
2022-12-03T04:22:40.316Z,98964.13
2022-12-03T04:25:28.188Z,98958.09
2022-12-03T04:28:14.694Z,98955.50
2022-12-03T04:30:42.211Z,98954.84
2022-12-03T04:33:28.016Z,98958.84
2022-12-03T04:35:55.398Z,98964.97
2022-12-03T04:38:22.248Z,98965.88
2022-12-03T04:41:01.597Z,98976.13
2022-12-03T04:43:29.622Z,98981.38
2022-12-03T04:45:56.502Z,98976.59
2022-12-03T04:48:24.572Z,98980.91
2022-12-03T04:50:51.764Z,98986.66
2022-12-03T04:53:20.435Z,98982.81
2022-12-03T04:55:48.992Z,98981.56
2022-12-03T04:58:16.064Z,98987.59
2022-12-03T05:00:42.837Z,98987.94
2022-12-03T05:03:10.089Z,98997.00
2022-12-03T05:05:36.851Z,98998.28
2022-12-03T05:08:04.477Z,98985.22
2022-12-03T05:10:31.933Z,98992.03
2022-12-03T05:12:58.993Z,99005.63
2022-12-03T05:15:25.646Z,98996.34
2022-12-03T05:17:54.703Z,98999.63
2022-12-03T05:20:40.443Z,98996.75
2022-12-03T05:23:09.240Z,99003.06
2022-12-03T05:25:36.467Z,98998.44
2022-12-03T05:28:04.267Z,99010.50
2022-12-03T05:30:31.585Z,99000.84
2022-12-03T05:32:58.906Z,99005.03
2022-12-03T05:35:26.104Z,99009.00
2022-12-03T05:37:53.484Z,99004.72
2022-12-03T05:40:20.505Z,99012.25
2022-12-03T05:42:54.083Z,99012.44
2022-12-03T05:45:25.965Z,99009.00
2022-12-03T05:47:53.870Z,99016.84
2022-12-03T05:50:23.192Z,99023.25
2022-12-03T05:52:50.959Z,99022.91
2022-12-03T05:55:18.791Z,99021.56
2022-12-03T05:57:46.493Z,99016.47
2022-12-03T06:00:19.505Z,99018.31
2022-12-03T06:02:47.654Z,99009.00
2022-12-03T06:05:15.932Z,99009.41
2022-12-03T06:07:43.207Z,99020.31
2022-12-03T06:10:13.354Z,99023.25
2022-12-03T06:12:41.266Z,99026.63
2022-12-03T06:15:09.829Z,99047.16
2022-12-03T06:17:37.349Z,99032.97
2022-12-03T06:20:04.864Z,99037.97
2022-12-03T06:22:32.068Z,99042.28
2022-12-03T06:25:03.561Z,99045.06
2022-12-03T06:27:33.533Z,99047.75
2022-12-03T06:30:00.987Z,99051.38
2022-12-03T06:32:28.076Z,99052.25
2022-12-03T06:34:55.050Z,99051.09
2022-12-03T06:37:22.606Z,99045.63
2022-12-03T06:39:49.500Z,99047.16
2022-12-03T06:42:16.949Z,99048.50
2022-12-03T06:44:44.061Z,99049.75
2022-12-03T06:47:11.155Z,99060.19
2022-12-03T06:49:37.909Z,99055.22
2022-12-03T06:52:06.032Z,99056.47
2022-12-03T06:54:32.899Z,99055.41
2022-12-03T06:57:00.371Z,99059.53
2022-12-03T06:59:27.591Z,99068.34
2022-12-03T07:01:54.842Z,99061.06
2022-12-03T07:04:21.706Z,99062.88
2022-12-03T07:06:48.562Z,99059.16
2022-12-03T07:09:17.108Z,99065.97
2022-12-03T07:11:43.962Z,99061.25
2022-12-03T07:14:11.543Z,99075.63
2022-12-03T07:16:39.096Z,99067.88
2022-12-03T07:19:07.073Z,99069.31
2022-12-03T07:21:34.170Z,99073.44
2022-12-03T07:24:01.358Z,99073.25
2022-12-03T07:26:28.191Z,99074.19
2022-12-03T07:28:55.807Z,99080.91
2022-12-03T07:31:23.059Z,99071.72
2022-12-03T07:33:50.296Z,99071.22
2022-12-03T07:36:17.382Z,99079.66
2022-12-03T07:38:44.282Z,99070.22
2022-12-03T07:41:11.266Z,99077.25
2022-12-03T07:43:38.378Z,99078.09
2022-12-03T07:46:07.107Z,99088.50
2022-12-03T07:48:34.101Z,99092.97
2022-12-03T07:51:01.407Z,99091.06
2022-12-03T07:53:28.213Z,99084.16
2022-12-03T07:55:55.560Z,99080.81
2022-12-03T07:58:22.410Z,99087.25
2022-12-03T08:00:49.472Z,99086.03
2022-12-03T08:03:16.256Z,99095.44
2022-12-03T08:05:44.151Z,99088.88
2022-12-03T08:08:11.005Z,99091.19
2022-12-03T08:10:38.160Z,99095.41
2022-12-03T08:13:12.571Z,99086.00
2022-12-03T08:15:39.912Z,99091.03
2022-12-03T08:18:33.049Z,99086.13
2022-12-03T08:20:59.942Z,99090.50
2022-12-03T08:23:28.152Z,99076.94
2022-12-03T08:25:55.091Z,99080.50
2022-12-03T08:28:23.247Z,99082.25
2022-12-03T08:31:01.887Z,99089.56
2022-12-03T08:33:36.897Z,99084.53
2022-12-03T08:36:29.565Z,99078.88
2022-12-03T08:38:57.997Z,99088.03
2022-12-03T08:41:43.800Z,99085.78
2022-12-03T08:44:27.644Z,99079.81
2022-12-03T08:47:17.349Z,99079.03
2022-12-03T08:49:51.996Z,99077.09
2022-12-03T08:52:26.197Z,99075.66
2022-12-03T08:54:55.443Z,99066.88
2022-12-03T08:57:25.661Z,99072.44
2022-12-03T09:00:21.011Z,99070.25
2022-12-03T09:02:51.717Z,99075.22
2022-12-03T09:05:37.688Z,99073.03
2022-12-03T09:08:04.877Z,99077.34
2022-12-03T09:10:31.711Z,99076.69
2022-12-03T09:12:58.656Z,99075.97
2022-12-03T09:15:25.554Z,99075.59
2022-12-03T09:17:52.383Z,99070.38
2022-12-03T09:20:19.240Z,99064.56
2022-12-03T09:22:46.645Z,99066.25
2022-12-03T09:25:13.500Z,99067.81
2022-12-03T09:27:40.433Z,99057.31
2022-12-03T09:30:07.868Z,99057.66
2022-12-03T09:32:35.337Z,99058.56
2022-12-03T09:35:02.621Z,99058.56
2022-12-03T09:37:29.403Z,99064.97
2022-12-03T09:39:56.848Z,99080.56
2022-12-03T09:42:24.729Z,99039.91
2022-12-03T09:44:53.344Z,99095.38
2022-12-03T09:47:21.048Z,99062.09
2022-12-03T09:49:48.504Z,99037.03
2022-12-03T09:52:26.730Z,99030.91
2022-12-03T09:54:55.199Z,99026.97
2022-12-03T09:57:22.301Z,99030.91
2022-12-03T09:59:49.670Z,99028.97
2022-12-03T10:02:26.899Z,99031.78
2022-12-03T10:04:54.877Z,99037.56
2022-12-03T10:07:22.708Z,99027.72
2022-12-03T10:09:50.061Z,99012.56
2022-12-03T10:12:23.543Z,99016.22
2022-12-03T10:14:52.435Z,99012.38
2022-12-03T10:17:19.635Z,99001.81
2022-12-03T10:19:48.931Z,98992.00
2022-12-03T10:22:15.714Z,98994.91
2022-12-03T10:24:44.992Z,98983.84
2022-12-03T10:27:31.072Z,98980.22
2022-12-03T10:30:00.760Z,98972.56
2022-12-03T10:32:40.898Z,98976.44
2022-12-03T10:35:21.475Z,98970.91
2022-12-03T10:38:20.128Z,98969.47
2022-12-03T10:40:47.085Z,98968.84
2022-12-03T10:43:19.940Z,98966.13
2022-12-03T10:46:09.979Z,98961.19
2022-12-03T10:48:38.173Z,98952.22
2022-12-03T10:51:09.512Z,98952.09
2022-12-03T10:53:40.795Z,98952.56
2022-12-03T10:56:13.152Z,98957.84
2022-12-03T10:58:41.153Z,98956.56
2022-12-03T11:01:16.539Z,98961.25
2022-12-03T11:03:45.090Z,98956.34
2022-12-03T11:06:20.799Z,98943.69
2022-12-03T11:08:56.747Z,98934.97
2022-12-03T11:11:30.341Z,98943.38
2022-12-03T11:14:03.428Z,98946.22
2022-12-03T11:16:39.452Z,98945.50
2022-12-03T11:19:19.435Z,98940.56
2022-12-03T11:22:09.865Z,98947.75
2022-12-03T11:24:39.592Z,98936.78
2022-12-03T11:27:07.189Z,98938.78
2022-12-03T11:29:55.900Z,98934.75
2022-12-03T11:32:38.674Z,98940.91
2022-12-03T11:35:27.082Z,98941.94
2022-12-03T11:37:54.227Z,98932.97
2022-12-03T11:40:21.062Z,98933.69
2022-12-03T11:42:50.054Z,98935.97
2022-12-03T11:45:33.604Z,98928.59
2022-12-03T11:48:16.455Z,98923.22
2022-12-03T11:50:57.871Z,98918.94
2022-12-03T11:53:27.776Z,98918.09
2022-12-03T11:56:08.616Z,98922.34
2022-12-03T11:58:38.629Z,98917.06
2022-12-03T12:01:08.029Z,98912.66
2022-12-03T12:03:50.402Z,98906.09
2022-12-03T12:06:21.866Z,98907.50
2022-12-03T12:08:51.484Z,98915.88
2022-12-03T12:11:43.721Z,98909.97
2022-12-03T12:14:13.001Z,98907.94
2022-12-03T12:16:39.921Z,98910.75
2022-12-03T12:19:43.546Z,98909.28
2022-12-03T12:22:27.256Z,98915.25
2022-12-03T12:25:05.596Z,98918.63
2022-12-03T12:27:35.452Z,98920.59
2022-12-03T12:30:03.977Z,98919.72
2022-12-03T12:32:34.307Z,98914.59
2022-12-03T12:35:15.231Z,98906.47
2022-12-03T12:37:59.708Z,98901.97
2022-12-03T12:40:30.638Z,98903.22
2022-12-03T12:43:05.366Z,98902.59
2022-12-03T12:45:37.560Z,98908.97
2022-12-03T12:48:10.716Z,98905.19
2022-12-03T12:50:38.607Z,98912.00
2022-12-03T12:53:11.393Z,98897.00
2022-12-03T12:55:42.064Z,98902.06
2022-12-03T12:58:16.238Z,98905.34
2022-12-03T13:01:04.469Z,98897.78
2022-12-03T13:03:37.673Z,98896.94
2022-12-03T13:06:05.798Z,98892.41
2022-12-03T13:08:42.089Z,98893.25
2022-12-03T13:11:42.554Z,98888.22
2022-12-03T13:14:19.939Z,98883.59
2022-12-03T13:16:52.760Z,98886.72
2022-12-03T13:19:24.002Z,98881.34
2022-12-03T13:22:02.175Z,98886.84
2022-12-03T13:24:33.981Z,98887.44
2022-12-03T13:27:28.931Z,98885.00
2022-12-03T13:30:16.964Z,98882.09
2022-12-03T13:32:44.714Z,98886.50
2022-12-03T13:35:26.969Z,98880.97
2022-12-03T13:37:54.585Z,98880.34
2022-12-03T13:40:26.775Z,98871.28
2022-12-03T13:42:54.449Z,98873.69
2022-12-03T13:45:22.427Z,98871.78
2022-12-03T13:47:55.366Z,98869.66
2022-12-03T13:50:36.434Z,98879.09
2022-12-03T13:53:15.953Z,98877.38
2022-12-03T13:55:48.909Z,98882.91
2022-12-03T13:58:15.985Z,98877.88
2022-12-03T14:00:43.184Z,98870.53
2022-12-03T14:03:10.450Z,98875.94
2022-12-03T14:05:37.760Z,98879.16
2022-12-03T14:08:06.334Z,98876.22
2022-12-03T14:10:33.726Z,98887.28
2022-12-03T14:13:00.630Z,98887.53
2022-12-03T14:15:27.492Z,98893.41
2022-12-03T14:17:54.461Z,98892.59
2022-12-03T14:20:22.253Z,98892.69
2022-12-03T14:22:49.149Z,98890.00
2022-12-03T14:25:16.113Z,98903.63
2022-12-03T14:27:43.743Z,98896.75
2022-12-03T14:30:11.694Z,98897.13
2022-12-03T14:32:38.635Z,98900.81
2022-12-03T14:35:09.891Z,98903.75
2022-12-03T14:37:37.598Z,98904.22
2022-12-03T14:40:07.490Z,98910.88
2022-12-03T14:42:35.219Z,98907.66
2022-12-03T14:45:04.588Z,98919.66
2022-12-03T14:47:31.910Z,98915.38
2022-12-03T14:50:00.280Z,98915.00
2022-12-03T14:52:27.404Z,98917.06
2022-12-03T14:54:54.843Z,98921.13
2022-12-03T14:57:21.886Z,98917.66
2022-12-03T14:59:48.778Z,98913.50
2022-12-03T15:02:16.877Z,98916.69
2022-12-03T15:04:43.897Z,98909.03
2022-12-03T15:07:11.045Z,98912.00
2022-12-03T15:09:39.925Z,98910.06
2022-12-03T15:12:07.398Z,98926.97
2022-12-03T15:14:34.354Z,98923.41
2022-12-03T15:17:01.479Z,98935.09
2022-12-03T15:19:28.802Z,98927.13
2022-12-03T15:21:55.833Z,98932.25
2022-12-03T15:24:22.738Z,98942.66
2022-12-03T15:26:53.600Z,98940.31
2022-12-03T15:29:20.660Z,98937.41
2022-12-03T15:31:47.766Z,98945.56
2022-12-03T15:34:20.297Z,98943.75
2022-12-03T15:36:49.270Z,98949.44
2022-12-03T15:39:16.469Z,98943.94
2022-12-03T15:41:43.368Z,98953.53
2022-12-03T15:44:10.213Z,98956.47
2022-12-03T15:46:37.135Z,98957.88
2022-12-03T15:49:04.117Z,98954.31
2022-12-03T15:51:31.022Z,98953.75
2022-12-03T15:53:57.916Z,98954.84
2022-12-03T15:56:24.742Z,98963.22
2022-12-03T15:58:51.757Z,98951.72
2022-12-03T16:01:18.691Z,98958.59
2022-12-03T16:03:45.729Z,98964.28
2022-12-03T16:06:13.055Z,98959.97
2022-12-03T16:08:39.956Z,98957.59
2022-12-03T16:11:07.286Z,98963.84
2022-12-03T16:13:34.412Z,98962.28
2022-12-03T16:16:01.342Z,98970.75
2022-12-03T16:18:28.221Z,98973.69
2022-12-03T16:20:55.064Z,98977.13
2022-12-03T16:23:21.923Z,98973.75
2022-12-03T16:25:48.787Z,98980.28
2022-12-03T16:28:15.719Z,98977.06
2022-12-03T16:30:42.738Z,98975.50
2022-12-03T16:33:09.735Z,98971.63
2022-12-03T16:35:38.133Z,98970.13
2022-12-03T16:38:05.044Z,98969.94
2022-12-03T16:40:31.962Z,98971.34
2022-12-03T16:42:58.878Z,98969.31
2022-12-03T16:46:00.766Z,98962.63
2022-12-03T16:48:28.377Z,98962.69
2022-12-03T16:50:55.253Z,98976.72
2022-12-03T16:53:22.178Z,98974.75
2022-12-03T16:55:49.018Z,98978.28
2022-12-03T16:58:15.957Z,98976.75
2022-12-03T17:00:42.941Z,98973.59
2022-12-03T17:03:09.940Z,98981.56
2022-12-03T17:05:36.806Z,98984.13
2022-12-03T17:08:03.698Z,98981.25
2022-12-03T17:10:30.599Z,98983.94
2022-12-03T17:13:12.727Z,98982.28
2022-12-03T17:15:40.393Z,98986.75
2022-12-03T17:18:08.043Z,98992.50
2022-12-03T17:20:35.744Z,98993.28
2022-12-03T17:23:03.387Z,98998.09
2022-12-03T17:25:30.500Z,99004.03
2022-12-03T17:27:57.480Z,99003.22
2022-12-03T17:30:24.405Z,99000.84
2022-12-03T17:32:51.300Z,99002.66
2022-12-03T17:35:18.719Z,99001.72
2022-12-03T17:37:45.830Z,99006.50
2022-12-03T17:40:14.715Z,99002.47
2022-12-03T17:42:41.519Z,99001.63
2022-12-03T17:45:08.969Z,98994.50
2022-12-03T17:47:35.844Z,99005.81
2022-12-03T17:50:02.748Z,99009.84
2022-12-03T17:52:29.583Z,99006.75
2022-12-03T17:55:10.916Z,99000.53
2022-12-03T17:57:38.930Z,99009.03
2022-12-03T18:00:06.541Z,99020.03
2022-12-03T18:02:42.231Z,99010.06
2022-12-03T18:05:10.135Z,99011.63
2022-12-03T18:07:37.401Z,99015.53
2022-12-03T18:10:04.946Z,99020.34
2022-12-03T18:12:32.371Z,99027.41
2022-12-03T18:14:59.340Z,99021.69
2022-12-03T18:17:26.189Z,99026.16
2022-12-03T18:19:53.384Z,99028.47
2022-12-03T18:22:20.600Z,99030.13
2022-12-03T18:24:51.568Z,99021.91
2022-12-03T18:27:20.514Z,99027.28
2022-12-03T18:29:47.853Z,99031.09
2022-12-03T18:32:27.677Z,99032.81
2022-12-03T18:34:55.777Z,99032.03
2022-12-03T18:37:27.061Z,99035.88
2022-12-03T18:39:54.549Z,99035.94
2022-12-03T18:42:23.550Z,99042.53
2022-12-03T18:44:52.874Z,99052.22
2022-12-03T18:47:22.031Z,99044.16
2022-12-03T18:49:48.958Z,99048.75
2022-12-03T18:52:19.183Z,99054.56
2022-12-03T18:54:47.217Z,99050.16
2022-12-03T18:57:14.633Z,99050.69
2022-12-03T18:59:41.994Z,99051.22
2022-12-03T19:02:38.428Z,99047.94
2022-12-03T19:05:02.534Z,99044.28
2022-12-03T19:07:29.371Z,99045.19
2022-12-03T19:09:56.538Z,99043.88
2022-12-03T19:12:23.585Z,99048.78
2022-12-03T19:14:51.157Z,99060.03
2022-12-03T19:17:18.011Z,99053.63
2022-12-03T19:19:44.814Z,99057.09
2022-12-03T19:22:11.645Z,99060.19
2022-12-03T19:24:38.449Z,99057.97
2022-12-03T19:27:05.443Z,99064.09
2022-12-03T19:29:32.307Z,99066.84
2022-12-03T19:31:59.368Z,99066.16
2022-12-03T19:34:26.547Z,99065.38
2022-12-03T19:36:53.421Z,99066.94
2022-12-03T19:39:20.373Z,99063.72
2022-12-03T19:41:47.351Z,99065.91
2022-12-03T19:44:15.915Z,99070.50
2022-12-03T19:46:43.819Z,99071.28
2022-12-03T19:49:11.219Z,99073.44
2022-12-03T19:51:38.194Z,99065.31
2022-12-03T19:54:06.866Z,99084.91
2022-12-03T19:56:35.225Z,99070.50
2022-12-03T19:59:02.796Z,99069.91
2022-12-03T20:01:32.901Z,99072.56
2022-12-03T20:04:01.741Z,99064.78
2022-12-03T20:06:31.194Z,99074.38
2022-12-03T20:09:00.524Z,99070.22
2022-12-03T20:11:29.918Z,99061.34
2022-12-03T20:13:59.585Z,99069.22
2022-12-03T20:16:27.721Z,99071.00
2022-12-03T20:19:00.235Z,99067.97
2022-12-03T20:21:30.246Z,99072.91
2022-12-03T20:23:57.489Z,99074.97
2022-12-03T20:26:25.454Z,99077.66
2022-12-03T20:28:56.982Z,99071.06
2022-12-03T20:31:27.278Z,99071.53
2022-12-03T20:33:57.678Z,99072.50
2022-12-03T20:36:25.770Z,99064.94
2022-12-03T20:38:57.128Z,99067.53
2022-12-03T20:41:25.146Z,99066.59
2022-12-03T20:43:52.980Z,99064.19
2022-12-03T20:58:51.195Z,99067.31
2022-12-03T21:01:25.225Z,99074.66
2022-12-03T21:03:54.858Z,99065.16
2022-12-03T21:06:22.758Z,99074.63
2022-12-03T21:08:52.159Z,99077.63
2022-12-03T21:11:24.548Z,99079.19
2022-12-03T21:13:53.553Z,99090.94
2022-12-03T21:16:45.438Z,99087.66
2022-12-03T21:19:11.859Z,99095.88
2022-12-03T21:21:38.903Z,99088.47
2022-12-03T21:24:06.284Z,99080.59
2022-12-03T21:26:33.859Z,99082.84
2022-12-03T21:29:01.418Z,99075.59
2022-12-03T21:31:30.338Z,99076.19
2022-12-03T21:33:57.915Z,99083.94
2022-12-03T21:36:25.602Z,99088.00
2022-12-03T21:38:52.810Z,99069.00
2022-12-03T21:41:19.709Z,99080.78
2022-12-03T21:43:47.269Z,99074.13
2022-12-03T21:47:10.160Z,99081.75
2022-12-03T21:49:04.902Z,99082.69
2022-12-03T21:51:31.696Z,99079.19
2022-12-03T21:53:58.782Z,99079.88
2022-12-03T21:56:25.670Z,99078.22
2022-12-03T21:58:52.476Z,99070.84
2022-12-03T22:01:23.233Z,99080.75
2022-12-03T22:03:51.259Z,99071.78
2022-12-03T22:06:18.869Z,99070.38
2022-12-03T22:08:46.300Z,99052.25
2022-12-03T22:11:22.877Z,99059.00
2022-12-03T22:13:50.362Z,99061.13
2022-12-03T22:16:20.199Z,99077.25
2022-12-03T22:18:47.742Z,99071.25
2022-12-03T22:21:17.620Z,99069.78
2022-12-03T22:23:45.154Z,99070.53
2022-12-03T22:26:14.627Z,99061.03
2022-12-03T22:28:46.756Z,99062.13
2022-12-03T22:31:14.362Z,99070.16
2022-12-03T22:33:42.350Z,99069.06
2022-12-03T22:36:19.907Z,99066.31
2022-12-03T22:38:47.901Z,99063.63
2022-12-03T22:41:15.808Z,99069.84
2022-12-03T22:43:43.499Z,99058.44
2022-12-03T22:46:13.084Z,99054.81
2022-12-03T22:48:42.609Z,99067.09
2022-12-03T22:51:20.351Z,99061.56
2022-12-03T22:53:48.314Z,99068.81
2022-12-03T22:56:16.074Z,99070.16
2022-12-03T22:58:44.864Z,99064.47
2022-12-03T23:01:30.712Z,99073.47
2022-12-03T23:03:59.195Z,99067.94
2022-12-03T23:06:27.580Z,99073.91
2022-12-03T23:08:55.045Z,99075.38
2022-12-03T23:11:22.833Z,99079.66
2022-12-03T23:13:50.142Z,99076.00
2022-12-03T23:16:24.615Z,99066.28
2022-12-03T23:18:52.613Z,99064.22
2022-12-03T23:21:29.470Z,99053.59
2022-12-03T23:23:59.620Z,99049.56
2022-12-03T23:26:27.598Z,99053.09
2022-12-03T23:28:55.384Z,99039.19
2022-12-03T23:31:28.450Z,99053.53
2022-12-03T23:33:56.266Z,99043.34
2022-12-03T23:36:24.949Z,99048.69
2022-12-03T23:38:51.801Z,99047.06
2022-12-03T23:41:21.124Z,99038.44
2022-12-03T23:43:48.452Z,99036.25
2022-12-03T23:46:18.767Z,99042.56
2022-12-03T23:48:46.187Z,99043.50
2022-12-03T23:51:16.644Z,99052.91
2022-12-03T23:53:43.717Z,99049.63
2022-12-03T23:56:18.672Z,99034.13
2022-12-03T23:58:46.423Z,99022.38
